sensor_id;sensor_type;location;lat;lon;timestamp;P1;durP1;ratioP1;P2;durP2;ratioP2
51292;SDS011;37377;45.186;9.778;2023-05-10T00:01:14;31.42;;;25.02;;
51292;SDS011;37377;45.186;9.778;2023-05-10T00:03:41;37.47;;;26.23;;
51292;SDS011;37377;45.186;9.778;2023-05-10T00:06:08;30.73;;;27.40;;
51292;SDS011;37377;45.186;9.778;2023-05-10T00:08:36;31.42;;;27.35;;
51292;SDS011;37377;45.186;9.778;2023-05-10T00:11:03;31.83;;;27.88;;
51292;SDS011;37377;45.186;9.778;2023-05-10T00:13:30;33.60;;;28.75;;
51292;SDS011;37377;45.186;9.778;2023-05-10T00:15:58;39.25;;;29.45;;
51292;SDS011;37377;45.186;9.778;2023-05-10T00:18:25;39.80;;;32.22;;
51292;SDS011;37377;45.186;9.778;2023-05-10T00:20:52;46.75;;;35.17;;
51292;SDS011;37377;45.186;9.778;2023-05-10T00:23:19;40.45;;;32.50;;
51292;SDS011;37377;45.186;9.778;2023-05-10T00:25:46;40.20;;;32.70;;
51292;SDS011;37377;45.186;9.778;2023-05-10T00:28:13;43.85;;;34.15;;
51292;SDS011;37377;45.186;9.778;2023-05-10T00:30:40;37.95;;;31.70;;
51292;SDS011;37377;45.186;9.778;2023-05-10T00:33:07;37.55;;;32.83;;
51292;SDS011;37377;45.186;9.778;2023-05-10T00:35:35;40.15;;;33.78;;
51292;SDS011;37377;45.186;9.778;2023-05-10T00:38:01;42.13;;;33.10;;
51292;SDS011;37377;45.186;9.778;2023-05-10T00:40:28;33.63;;;28.13;;
51292;SDS011;37377;45.186;9.778;2023-05-10T00:43:01;31.55;;;27.42;;
51292;SDS011;37377;45.186;9.778;2023-05-10T00:45:30;34.97;;;29.15;;
51292;SDS011;37377;45.186;9.778;2023-05-10T00:48:01;30.33;;;26.83;;
51292;SDS011;37377;45.186;9.778;2023-05-10T00:50:30;29.95;;;26.77;;
51292;SDS011;37377;45.186;9.778;2023-05-10T00:52:58;32.80;;;26.83;;
51292;SDS011;37377;45.186;9.778;2023-05-10T00:55:26;30.13;;;24.95;;
51292;SDS011;37377;45.186;9.778;2023-05-10T00:57:53;30.25;;;26.73;;
51292;SDS011;37377;45.186;9.778;2023-05-10T01:00:21;32.03;;;26.40;;
51292;SDS011;37377;45.186;9.778;2023-05-10T01:02:50;35.22;;;29.67;;
51292;SDS011;37377;45.186;9.778;2023-05-10T01:05:17;31.17;;;27.50;;
51292;SDS011;37377;45.186;9.778;2023-05-10T01:07:47;30.08;;;26.05;;
51292;SDS011;37377;45.186;9.778;2023-05-10T01:10:15;34.13;;;29.02;;
51292;SDS011;37377;45.186;9.778;2023-05-10T01:12:43;33.35;;;29.83;;
51292;SDS011;37377;45.186;9.778;2023-05-10T01:15:10;38.53;;;31.33;;
51292;SDS011;37377;45.186;9.778;2023-05-10T01:17:38;39.05;;;33.13;;
51292;SDS011;37377;45.186;9.778;2023-05-10T01:20:07;45.78;;;34.70;;
51292;SDS011;37377;45.186;9.778;2023-05-10T01:25:28;47.08;;;37.95;;
51292;SDS011;37377;45.186;9.778;2023-05-10T01:33:18;53.58;;;41.35;;
51292;SDS011;37377;45.186;9.778;2023-05-10T01:36:00;55.65;;;41.22;;
51292;SDS011;37377;45.186;9.778;2023-05-10T01:43:32;56.33;;;42.85;;
51292;SDS011;37377;45.186;9.778;2023-05-10T01:46:02;57.50;;;44.13;;
51292;SDS011;37377;45.186;9.778;2023-05-10T01:48:40;60.88;;;42.50;;
51292;SDS011;37377;45.186;9.778;2023-05-10T01:51:13;49.58;;;38.70;;
51292;SDS011;37377;45.186;9.778;2023-05-10T01:53:42;49.88;;;39.85;;
51292;SDS011;37377;45.186;9.778;2023-05-10T01:56:13;57.65;;;40.75;;
51292;SDS011;37377;45.186;9.778;2023-05-10T01:58:41;57.72;;;42.15;;
51292;SDS011;37377;45.186;9.778;2023-05-10T02:01:10;49.38;;;36.42;;
51292;SDS011;37377;45.186;9.778;2023-05-10T02:03:38;51.20;;;38.63;;
51292;SDS011;37377;45.186;9.778;2023-05-10T02:06:08;52.50;;;41.42;;
51292;SDS011;37377;45.186;9.778;2023-05-10T02:08:37;62.28;;;46.90;;
51292;SDS011;37377;45.186;9.778;2023-05-10T02:11:05;57.97;;;44.08;;
51292;SDS011;37377;45.186;9.778;2023-05-10T02:13:32;59.42;;;45.63;;
51292;SDS011;37377;45.186;9.778;2023-05-10T02:16:01;65.28;;;47.80;;
51292;SDS011;37377;45.186;9.778;2023-05-10T02:18:30;62.80;;;47.67;;
51292;SDS011;37377;45.186;9.778;2023-05-10T02:20:58;69.10;;;49.28;;
51292;SDS011;37377;45.186;9.778;2023-05-10T02:23:27;79.47;;;56.70;;
51292;SDS011;37377;45.186;9.778;2023-05-10T02:25:57;85.80;;;56.83;;
51292;SDS011;37377;45.186;9.778;2023-05-10T02:28:47;70.05;;;49.45;;
51292;SDS011;37377;45.186;9.778;2023-05-10T02:31:15;64.43;;;48.45;;
51292;SDS011;37377;45.186;9.778;2023-05-10T02:33:42;64.03;;;48.83;;
51292;SDS011;37377;45.186;9.778;2023-05-10T02:36:10;64.57;;;48.22;;
51292;SDS011;37377;45.186;9.778;2023-05-10T02:39:00;68.50;;;49.85;;
51292;SDS011;37377;45.186;9.778;2023-05-10T02:41:28;74.85;;;53.30;;
51292;SDS011;37377;45.186;9.778;2023-05-10T02:43:59;62.53;;;46.97;;
51292;SDS011;37377;45.186;9.778;2023-05-10T02:46:30;54.55;;;41.40;;
51292;SDS011;37377;45.186;9.778;2023-05-10T02:49:48;43.72;;;36.17;;
51292;SDS011;37377;45.186;9.778;2023-05-10T02:53:04;43.97;;;30.73;;
51292;SDS011;37377;45.186;9.778;2023-05-10T02:55:36;35.08;;;28.92;;
51292;SDS011;37377;45.186;9.778;2023-05-10T02:58:34;32.10;;;27.95;;
51292;SDS011;37377;45.186;9.778;2023-05-10T03:01:31;35.08;;;29.95;;
51292;SDS011;37377;45.186;9.778;2023-05-10T03:04:33;37.80;;;30.38;;
51292;SDS011;37377;45.186;9.778;2023-05-10T03:09:59;36.83;;;28.50;;
51292;SDS011;37377;45.186;9.778;2023-05-10T03:13:07;35.63;;;29.02;;
51292;SDS011;37377;45.186;9.778;2023-05-10T03:16:06;37.20;;;30.20;;
51292;SDS011;37377;45.186;9.778;2023-05-10T03:19:32;44.83;;;32.55;;
51292;SDS011;37377;45.186;9.778;2023-05-10T03:26:15;38.92;;;31.80;;
51292;SDS011;37377;45.186;9.778;2023-05-10T03:29:44;40.50;;;32.03;;
51292;SDS011;37377;45.186;9.778;2023-05-10T03:33:50;47.85;;;36.30;;
51292;SDS011;37377;45.186;9.778;2023-05-10T03:37:22;47.08;;;37.88;;
51292;SDS011;37377;45.186;9.778;2023-05-10T03:40:17;48.35;;;35.70;;
51292;SDS011;37377;45.186;9.778;2023-05-10T03:43:38;39.72;;;29.65;;
51292;SDS011;37377;45.186;9.778;2023-05-10T03:47:23;31.40;;;28.00;;
51292;SDS011;37377;45.186;9.778;2023-05-10T03:51:12;28.25;;;22.73;;
51292;SDS011;37377;45.186;9.778;2023-05-10T03:55:20;23.35;;;20.73;;
51292;SDS011;37377;45.186;9.778;2023-05-10T03:57:53;20.92;;;16.67;;
51292;SDS011;37377;45.186;9.778;2023-05-10T04:00:22;18.00;;;16.10;;
51292;SDS011;37377;45.186;9.778;2023-05-10T04:02:53;17.38;;;15.63;;
51292;SDS011;37377;45.186;9.778;2023-05-10T04:05:25;19.38;;;16.38;;
51292;SDS011;37377;45.186;9.778;2023-05-10T04:07:55;18.40;;;16.40;;
51292;SDS011;37377;45.186;9.778;2023-05-10T04:10:44;17.02;;;14.95;;
51292;SDS011;37377;45.186;9.778;2023-05-10T04:13:16;14.98;;;13.50;;
51292;SDS011;37377;45.186;9.778;2023-05-10T04:15:47;17.23;;;15.48;;
51292;SDS011;37377;45.186;9.778;2023-05-10T04:18:16;15.82;;;14.32;;
51292;SDS011;37377;45.186;9.778;2023-05-10T04:20:53;19.70;;;16.10;;
51292;SDS011;37377;45.186;9.778;2023-05-10T04:23:30;18.60;;;16.83;;
51292;SDS011;37377;45.186;9.778;2023-05-10T04:26:10;18.98;;;16.98;;
51292;SDS011;37377;45.186;9.778;2023-05-10T04:28:51;21.55;;;16.73;;
51292;SDS011;37377;45.186;9.778;2023-05-10T04:32:07;17.77;;;15.48;;
51292;SDS011;37377;45.186;9.778;2023-05-10T04:34:53;19.75;;;15.35;;
51292;SDS011;37377;45.186;9.778;2023-05-10T04:37:41;17.52;;;15.77;;
51292;SDS011;37377;45.186;9.778;2023-05-10T04:41:11;19.92;;;14.48;;
51292;SDS011;37377;45.186;9.778;2023-05-10T04:43:41;17.43;;;14.30;;
51292;SDS011;37377;45.186;9.778;2023-05-10T04:46:42;25.55;;;15.80;;
51292;SDS011;37377;45.186;9.778;2023-05-10T04:50:48;17.27;;;15.55;;
51292;SDS011;37377;45.186;9.778;2023-05-10T07:52:13;17.80;;;13.13;;
51292;SDS011;37377;45.186;9.778;2023-05-10T07:54:46;13.50;;;12.27;;
51292;SDS011;37377;45.186;9.778;2023-05-10T07:57:29;15.80;;;10.85;;
51292;SDS011;37377;45.186;9.778;2023-05-10T07:59:57;12.13;;;11.02;;
51292;SDS011;37377;45.186;9.778;2023-05-10T08:02:24;13.30;;;11.55;;
51292;SDS011;37377;45.186;9.778;2023-05-10T08:04:51;16.73;;;12.93;;
51292;SDS011;37377;45.186;9.778;2023-05-10T08:07:19;13.85;;;12.45;;
51292;SDS011;37377;45.186;9.778;2023-05-10T08:09:46;20.95;;;14.05;;
51292;SDS011;37377;45.186;9.778;2023-05-10T08:12:13;12.48;;;11.25;;
51292;SDS011;37377;45.186;9.778;2023-05-10T08:15:05;9.85;;;9.05;;
51292;SDS011;37377;45.186;9.778;2023-05-10T08:17:32;9.13;;;8.23;;
51292;SDS011;37377;45.186;9.778;2023-05-10T08:19:59;7.93;;;7.18;;
51292;SDS011;37377;45.186;9.778;2023-05-10T08:22:26;8.35;;;7.55;;
51292;SDS011;37377;45.186;9.778;2023-05-10T08:24:53;8.77;;;7.97;;
51292;SDS011;37377;45.186;9.778;2023-05-10T08:27:20;10.55;;;8.45;;
51292;SDS011;37377;45.186;9.778;2023-05-10T08:29:48;8.63;;;7.93;;
51292;SDS011;37377;45.186;9.778;2023-05-10T08:32:16;12.48;;;10.68;;
51292;SDS011;37377;45.186;9.778;2023-05-10T08:34:43;10.60;;;9.40;;
51292;SDS011;37377;45.186;9.778;2023-05-10T08:37:10;8.57;;;7.88;;
51292;SDS011;37377;45.186;9.778;2023-05-10T08:39:40;8.82;;;8.02;;
51292;SDS011;37377;45.186;9.778;2023-05-10T08:42:07;9.02;;;8.27;;
51292;SDS011;37377;45.186;9.778;2023-05-10T08:44:35;6.72;;;6.13;;
51292;SDS011;37377;45.186;9.778;2023-05-10T08:47:06;8.95;;;7.68;;
51292;SDS011;37377;45.186;9.778;2023-05-10T08:49:34;12.10;;;9.32;;
51292;SDS011;37377;45.186;9.778;2023-05-10T08:52:03;11.25;;;10.23;;
51292;SDS011;37377;45.186;9.778;2023-05-10T08:54:31;11.18;;;10.05;;
51292;SDS011;37377;45.186;9.778;2023-05-10T08:56:59;12.35;;;8.25;;
51292;SDS011;37377;45.186;9.778;2023-05-10T08:59:29;11.73;;;8.50;;
51292;SDS011;37377;45.186;9.778;2023-05-10T09:02:29;10.30;;;8.35;;
51292;SDS011;37377;45.186;9.778;2023-05-10T09:04:56;9.57;;;8.68;;
51292;SDS011;37377;45.186;9.778;2023-05-10T09:07:24;10.35;;;9.35;;
51292;SDS011;37377;45.186;9.778;2023-05-10T09:09:51;8.10;;;7.50;;
51292;SDS011;37377;45.186;9.778;2023-05-10T09:12:28;6.60;;;6.10;;
51292;SDS011;37377;45.186;9.778;2023-05-10T09:15:52;7.07;;;6.32;;
51292;SDS011;37377;45.186;9.778;2023-05-10T09:18:19;7.05;;;6.35;;
51292;SDS011;37377;45.186;9.778;2023-05-10T09:20:50;6.53;;;5.93;;
51292;SDS011;37377;45.186;9.778;2023-05-10T09:23:18;6.60;;;6.00;;
51292;SDS011;37377;45.186;9.778;2023-05-10T09:25:46;9.35;;;7.72;;
51292;SDS011;37377;45.186;9.778;2023-05-10T09:28:12;8.40;;;7.68;;
51292;SDS011;37377;45.186;9.778;2023-05-10T09:30:39;9.40;;;8.60;;
51292;SDS011;37377;45.186;9.778;2023-05-10T09:33:07;7.75;;;7.05;;
51292;SDS011;37377;45.186;9.778;2023-05-10T09:35:34;6.88;;;6.20;;
51292;SDS011;37377;45.186;9.778;2023-05-10T09:38:03;7.22;;;6.07;;
51292;SDS011;37377;45.186;9.778;2023-05-10T09:40:31;6.10;;;5.60;;
51292;SDS011;37377;45.186;9.778;2023-05-10T09:42:59;5.65;;;4.65;;
51292;SDS011;37377;45.186;9.778;2023-05-10T09:45:32;4.85;;;4.47;;
51292;SDS011;37377;45.186;9.778;2023-05-10T09:48:03;4.55;;;4.15;;
51292;SDS011;37377;45.186;9.778;2023-05-10T09:50:59;4.30;;;3.90;;
51292;SDS011;37377;45.186;9.778;2023-05-10T09:53:27;4.70;;;4.28;;
51292;SDS011;37377;45.186;9.778;2023-05-10T09:55:57;5.88;;;4.55;;
51292;SDS011;37377;45.186;9.778;2023-05-10T09:58:33;5.10;;;4.35;;
51292;SDS011;37377;45.186;9.778;2023-05-10T10:01:03;7.20;;;5.75;;
51292;SDS011;37377;45.186;9.778;2023-05-10T10:03:30;6.00;;;5.35;;
51292;SDS011;37377;45.186;9.778;2023-05-10T10:05:59;6.95;;;5.30;;
51292;SDS011;37377;45.186;9.778;2023-05-10T10:08:25;6.50;;;5.85;;
51292;SDS011;37377;45.186;9.778;2023-05-10T10:15:10;5.47;;;5.07;;
51292;SDS011;37377;45.186;9.778;2023-05-10T10:17:38;5.20;;;4.70;;
51292;SDS011;37377;45.186;9.778;2023-05-10T10:26:46;5.43;;;4.95;;
51292;SDS011;37377;45.186;9.778;2023-05-10T10:30:24;5.78;;;5.15;;
51292;SDS011;37377;45.186;9.778;2023-05-10T10:35:58;5.10;;;4.63;;
51292;SDS011;37377;45.186;9.778;2023-05-10T10:39:08;5.05;;;4.65;;
51292;SDS011;37377;45.186;9.778;2023-05-10T10:41:53;5.63;;;4.45;;
51292;SDS011;37377;45.186;9.778;2023-05-10T10:44:35;5.35;;;4.82;;
51292;SDS011;37377;45.186;9.778;2023-05-10T10:52:41;5.28;;;4.20;;
51292;SDS011;37377;45.186;9.778;2023-05-10T10:56:12;5.10;;;4.70;;
51292;SDS011;37377;45.186;9.778;2023-05-10T10:59:27;5.43;;;4.57;;
51292;SDS011;37377;45.186;9.778;2023-05-10T11:09:07;5.85;;;5.32;;
51292;SDS011;37377;45.186;9.778;2023-05-10T11:12:07;5.13;;;4.60;;
51292;SDS011;37377;45.186;9.778;2023-05-10T11:18:17;6.80;;;4.97;;
51292;SDS011;37377;45.186;9.778;2023-05-10T11:24:32;6.15;;;4.38;;
51292;SDS011;37377;45.186;9.778;2023-05-10T11:27:27;5.40;;;4.88;;
51292;SDS011;37377;45.186;9.778;2023-05-10T11:33:30;4.90;;;4.50;;
51292;SDS011;37377;45.186;9.778;2023-05-10T11:45:41;4.10;;;3.58;;
51292;SDS011;37377;45.186;9.778;2023-05-10T11:48:12;3.80;;;3.50;;
51292;SDS011;37377;45.186;9.778;2023-05-10T11:50:43;4.55;;;4.15;;
51292;SDS011;37377;45.186;9.778;2023-05-10T11:53:19;4.75;;;4.00;;
51292;SDS011;37377;45.186;9.778;2023-05-10T13:06:40;6.35;;;3.40;;
51292;SDS011;37377;45.186;9.778;2023-05-10T13:09:33;2.93;;;2.67;;
51292;SDS011;37377;45.186;9.778;2023-05-10T13:12:03;4.45;;;3.70;;
51292;SDS011;37377;45.186;9.778;2023-05-10T13:15:01;6.13;;;3.13;;
51292;SDS011;37377;45.186;9.778;2023-05-10T13:17:30;3.97;;;3.20;;
51292;SDS011;37377;45.186;9.778;2023-05-10T13:20:00;7.47;;;6.78;;
51292;SDS011;37377;45.186;9.778;2023-05-10T13:22:33;12.27;;;9.20;;
51292;SDS011;37377;45.186;9.778;2023-05-10T13:25:45;6.93;;;5.32;;
51292;SDS011;37377;45.186;9.778;2023-05-10T13:28:16;7.22;;;4.03;;
51292;SDS011;37377;45.186;9.778;2023-05-10T13:30:50;9.75;;;7.82;;
51292;SDS011;37377;45.186;9.778;2023-05-10T13:33:24;11.68;;;5.63;;
51292;SDS011;37377;45.186;9.778;2023-05-10T13:35:54;3.90;;;3.50;;
51292;SDS011;37377;45.186;9.778;2023-05-10T13:39:02;7.85;;;3.10;;
51292;SDS011;37377;45.186;9.778;2023-05-10T13:41:32;3.70;;;3.40;;
51292;SDS011;37377;45.186;9.778;2023-05-10T13:44:20;6.05;;;4.75;;
51292;SDS011;37377;45.186;9.778;2023-05-10T13:46:52;3.90;;;3.47;;
51292;SDS011;37377;45.186;9.778;2023-05-10T13:49:22;5.85;;;3.17;;
51292;SDS011;37377;45.186;9.778;2023-05-10T13:51:50;5.95;;;3.47;;
51292;SDS011;37377;45.186;9.778;2023-05-10T13:54:35;11.13;;;3.53;;
51292;SDS011;37377;45.186;9.778;2023-05-10T13:57:08;9.85;;;3.50;;
51292;SDS011;37377;45.186;9.778;2023-05-10T13:59:39;5.03;;;3.42;;
51292;SDS011;37377;45.186;9.778;2023-05-10T14:02:09;5.53;;;3.60;;
51292;SDS011;37377;45.186;9.778;2023-05-10T14:07:11;4.55;;;3.90;;
51292;SDS011;37377;45.186;9.778;2023-05-10T14:09:41;4.60;;;3.63;;
51292;SDS011;37377;45.186;9.778;2023-05-10T14:12:10;4.55;;;4.15;;
51292;SDS011;37377;45.186;9.778;2023-05-10T14:14:43;9.88;;;3.53;;
51292;SDS011;37377;45.186;9.778;2023-05-10T14:20:06;3.90;;;3.50;;
51292;SDS011;37377;45.186;9.778;2023-05-10T14:23:31;7.68;;;4.15;;
51292;SDS011;37377;45.186;9.778;2023-05-10T14:26:09;4.55;;;4.15;;
51292;SDS011;37377;45.186;9.778;2023-05-10T14:28:37;5.35;;;3.47;;
51292;SDS011;37377;45.186;9.778;2023-05-10T14:31:04;3.42;;;3.13;;
51292;SDS011;37377;45.186;9.778;2023-05-10T14:33:32;4.32;;;3.63;;
51292;SDS011;37377;45.186;9.778;2023-05-10T14:36:00;3.95;;;3.30;;
51292;SDS011;37377;45.186;9.778;2023-05-10T14:38:51;3.65;;;3.10;;
51292;SDS011;37377;45.186;9.778;2023-05-10T14:46:25;9.18;;;3.65;;
51292;SDS011;37377;45.186;9.778;2023-05-10T14:48:56;5.22;;;3.47;;
51292;SDS011;37377;45.186;9.778;2023-05-10T14:51:24;3.53;;;3.17;;
51292;SDS011;37377;45.186;9.778;2023-05-10T14:53:59;3.63;;;2.97;;
51292;SDS011;37377;45.186;9.778;2023-05-10T14:56:27;4.90;;;3.28;;
51292;SDS011;37377;45.186;9.778;2023-05-10T14:58:57;2.70;;;2.50;;
51292;SDS011;37377;45.186;9.778;2023-05-10T15:01:28;3.28;;;3.08;;
51292;SDS011;37377;45.186;9.778;2023-05-10T15:04:20;7.35;;;3.70;;
51292;SDS011;37377;45.186;9.778;2023-05-10T15:06:51;3.90;;;3.60;;
51292;SDS011;37377;45.186;9.778;2023-05-10T15:09:20;5.47;;;3.80;;
51292;SDS011;37377;45.186;9.778;2023-05-10T15:11:49;5.82;;;3.78;;
51292;SDS011;37377;45.186;9.778;2023-05-10T15:14:22;3.45;;;3.15;;
51292;SDS011;37377;45.186;9.778;2023-05-10T15:16:50;3.53;;;2.67;;
51292;SDS011;37377;45.186;9.778;2023-05-10T15:19:19;3.83;;;3.40;;
51292;SDS011;37377;45.186;9.778;2023-05-10T15:21:48;4.30;;;3.03;;
51292;SDS011;37377;45.186;9.778;2023-05-10T15:24:46;3.25;;;2.72;;
51292;SDS011;37377;45.186;9.778;2023-05-10T15:27:23;4.53;;;3.45;;
51292;SDS011;37377;45.186;9.778;2023-05-10T15:29:52;2.83;;;2.53;;
51292;SDS011;37377;45.186;9.778;2023-05-10T15:32:20;7.35;;;2.80;;
51292;SDS011;37377;45.186;9.778;2023-05-10T15:35:16;3.25;;;2.95;;
51292;SDS011;37377;45.186;9.778;2023-05-10T15:38:39;4.53;;;2.92;;
51292;SDS011;37377;45.186;9.778;2023-05-10T15:43:39;4.45;;;3.47;;
51292;SDS011;37377;45.186;9.778;2023-05-10T15:46:07;7.10;;;3.28;;
51292;SDS011;37377;45.186;9.778;2023-05-10T15:48:35;4.88;;;3.40;;
51292;SDS011;37377;45.186;9.778;2023-05-10T15:54:36;5.80;;;4.00;;
51292;SDS011;37377;45.186;9.778;2023-05-10T15:57:34;5.00;;;4.22;;
51292;SDS011;37377;45.186;9.778;2023-05-10T16:01:04;5.18;;;3.92;;
51292;SDS011;37377;45.186;9.778;2023-05-10T16:04:55;4.28;;;3.85;;
51292;SDS011;37377;45.186;9.778;2023-05-10T16:14:34;7.65;;;4.00;;
51292;SDS011;37377;45.186;9.778;2023-05-10T16:18:24;8.63;;;4.40;;
51292;SDS011;37377;45.186;9.778;2023-05-10T16:20:58;5.68;;;3.78;;
51292;SDS011;37377;45.186;9.778;2023-05-10T16:23:27;10.38;;;4.82;;
51292;SDS011;37377;45.186;9.778;2023-05-10T16:26:23;11.25;;;4.18;;
51292;SDS011;37377;45.186;9.778;2023-05-10T16:28:54;4.20;;;3.45;;
51292;SDS011;37377;45.186;9.778;2023-05-10T16:32:13;13.75;;;5.15;;
51292;SDS011;37377;45.186;9.778;2023-05-10T16:35:25;6.30;;;4.00;;
51292;SDS011;37377;45.186;9.778;2023-05-10T16:38:35;6.32;;;3.83;;
51292;SDS011;37377;45.186;9.778;2023-05-10T16:41:26;4.53;;;3.75;;
51292;SDS011;37377;45.186;9.778;2023-05-10T16:45:00;4.07;;;3.70;;
51292;SDS011;37377;45.186;9.778;2023-05-10T16:51:27;11.00;;;4.80;;
51292;SDS011;37377;45.186;9.778;2023-05-10T16:54:02;6.90;;;4.90;;
51292;SDS011;37377;45.186;9.778;2023-05-10T16:56:32;7.90;;;4.45;;
51292;SDS011;37377;45.186;9.778;2023-05-10T17:04:06;7.10;;;4.90;;
51292;SDS011;37377;45.186;9.778;2023-05-10T17:07:47;16.73;;;4.45;;
51292;SDS011;37377;45.186;9.778;2023-05-10T17:11:14;7.72;;;4.15;;
51292;SDS011;37377;45.186;9.778;2023-05-10T17:18:22;12.18;;;4.70;;
51292;SDS011;37377;45.186;9.778;2023-05-10T17:21:36;10.23;;;4.10;;
51292;SDS011;37377;45.186;9.778;2023-05-10T17:24:26;9.10;;;4.13;;
51292;SDS011;37377;45.186;9.778;2023-05-10T17:28:24;9.32;;;4.38;;
51292;SDS011;37377;45.186;9.778;2023-05-10T17:31:34;10.02;;;4.25;;
51292;SDS011;37377;45.186;9.778;2023-05-10T17:34:01;4.35;;;3.83;;
51292;SDS011;37377;45.186;9.778;2023-05-10T17:36:31;5.72;;;4.00;;
51292;SDS011;37377;45.186;9.778;2023-05-10T17:39:07;4.28;;;3.88;;
51292;SDS011;37377;45.186;9.778;2023-05-10T17:41:35;12.05;;;4.18;;
51292;SDS011;37377;45.186;9.778;2023-05-10T17:44:05;7.78;;;3.92;;
51292;SDS011;37377;45.186;9.778;2023-05-10T17:46:35;9.65;;;5.47;;
51292;SDS011;37377;45.186;9.778;2023-05-10T17:49:03;4.13;;;3.75;;
51292;SDS011;37377;45.186;9.778;2023-05-10T17:51:31;5.47;;;3.63;;
51292;SDS011;37377;45.186;9.778;2023-05-10T17:54:02;14.35;;;4.40;;
51292;SDS011;37377;45.186;9.778;2023-05-10T17:56:35;4.28;;;3.75;;
51292;SDS011;37377;45.186;9.778;2023-05-10T17:59:11;14.23;;;5.80;;
51292;SDS011;37377;45.186;9.778;2023-05-10T18:01:49;7.82;;;6.68;;
51292;SDS011;37377;45.186;9.778;2023-05-10T18:04:17;7.72;;;5.32;;
51292;SDS011;37377;45.186;9.778;2023-05-10T18:07:12;7.07;;;4.45;;
51292;SDS011;37377;45.186;9.778;2023-05-10T18:09:56;23.08;;;5.20;;
51292;SDS011;37377;45.186;9.778;2023-05-10T18:12:27;8.20;;;5.38;;
51292;SDS011;37377;45.186;9.778;2023-05-10T18:14:57;8.50;;;4.80;;
51292;SDS011;37377;45.186;9.778;2023-05-10T18:20:39;10.40;;;4.78;;
51292;SDS011;37377;45.186;9.778;2023-05-10T18:23:10;10.18;;;6.10;;
51292;SDS011;37377;45.186;9.778;2023-05-10T18:25:41;8.10;;;5.10;;
51292;SDS011;37377;45.186;9.778;2023-05-10T18:28:09;13.35;;;5.15;;
51292;SDS011;37377;45.186;9.778;2023-05-10T18:30:56;12.10;;;5.55;;
51292;SDS011;37377;45.186;9.778;2023-05-10T18:33:24;15.15;;;6.10;;
51292;SDS011;37377;45.186;9.778;2023-05-10T18:35:52;6.78;;;5.07;;
51292;SDS011;37377;45.186;9.778;2023-05-10T18:38:44;5.72;;;4.82;;
51292;SDS011;37377;45.186;9.778;2023-05-10T18:41:11;7.78;;;5.10;;
51292;SDS011;37377;45.186;9.778;2023-05-10T18:43:54;12.27;;;6.05;;
51292;SDS011;37377;45.186;9.778;2023-05-10T18:46:36;13.20;;;5.72;;
51292;SDS011;37377;45.186;9.778;2023-05-10T18:49:07;6.53;;;5.22;;
51292;SDS011;37377;45.186;9.778;2023-05-10T18:51:40;7.45;;;5.88;;
51292;SDS011;37377;45.186;9.778;2023-05-10T18:54:31;12.77;;;6.70;;
51292;SDS011;37377;45.186;9.778;2023-05-10T18:57:13;8.25;;;5.93;;
51292;SDS011;37377;45.186;9.778;2023-05-10T18:59:50;15.77;;;10.00;;
51292;SDS011;37377;45.186;9.778;2023-05-10T19:02:17;8.23;;;5.95;;
51292;SDS011;37377;45.186;9.778;2023-05-10T19:04:45;8.55;;;5.43;;
51292;SDS011;37377;45.186;9.778;2023-05-10T19:07:12;11.18;;;6.57;;
51292;SDS011;37377;45.186;9.778;2023-05-10T19:09:41;6.50;;;5.25;;
51292;SDS011;37377;45.186;9.778;2023-05-10T19:12:09;12.77;;;5.47;;
51292;SDS011;37377;45.186;9.778;2023-05-10T19:14:46;16.02;;;6.40;;
51292;SDS011;37377;45.186;9.778;2023-05-10T19:17:13;11.35;;;8.20;;
51292;SDS011;37377;45.186;9.778;2023-05-10T19:19:41;12.50;;;5.22;;
51292;SDS011;37377;45.186;9.778;2023-05-10T19:22:15;5.93;;;5.43;;
51292;SDS011;37377;45.186;9.778;2023-05-10T19:25:00;6.63;;;4.70;;
51292;SDS011;37377;45.186;9.778;2023-05-10T19:27:39;5.82;;;5.22;;
51292;SDS011;37377;45.186;9.778;2023-05-10T19:30:07;10.73;;;5.28;;
51292;SDS011;37377;45.186;9.778;2023-05-10T19:32:36;6.38;;;5.22;;
51292;SDS011;37377;45.186;9.778;2023-05-10T19:35:08;8.48;;;5.90;;
51292;SDS011;37377;45.186;9.778;2023-05-10T19:37:39;6.22;;;5.60;;
51292;SDS011;37377;45.186;9.778;2023-05-10T19:40:30;6.43;;;5.82;;
51292;SDS011;37377;45.186;9.778;2023-05-10T19:42:59;6.30;;;5.55;;
51292;SDS011;37377;45.186;9.778;2023-05-10T19:49:13;7.22;;;6.53;;
51292;SDS011;37377;45.186;9.778;2023-05-10T19:51:54;6.60;;;5.95;;
51292;SDS011;37377;45.186;9.778;2023-05-10T19:54:23;18.55;;;13.35;;
51292;SDS011;37377;45.186;9.778;2023-05-10T19:56:50;10.15;;;7.57;;
51292;SDS011;37377;45.186;9.778;2023-05-10T19:59:18;11.73;;;6.75;;
51292;SDS011;37377;45.186;9.778;2023-05-10T20:01:47;6.60;;;5.80;;
51292;SDS011;37377;45.186;9.778;2023-05-10T20:04:25;31.17;;;26.38;;
51292;SDS011;37377;45.186;9.778;2023-05-10T20:07:08;8.10;;;7.30;;
51292;SDS011;37377;45.186;9.778;2023-05-10T20:09:38;6.30;;;5.68;;
51292;SDS011;37377;45.186;9.778;2023-05-10T20:12:06;6.30;;;5.80;;
51292;SDS011;37377;45.186;9.778;2023-05-10T20:14:35;6.88;;;5.95;;
51292;SDS011;37377;45.186;9.778;2023-05-10T20:17:06;11.82;;;6.07;;
51292;SDS011;37377;45.186;9.778;2023-05-10T20:19:33;8.98;;;5.85;;
51292;SDS011;37377;45.186;9.778;2023-05-10T20:22:01;7.88;;;6.40;;
51292;SDS011;37377;45.186;9.778;2023-05-10T20:24:37;7.00;;;6.40;;
51292;SDS011;37377;45.186;9.778;2023-05-10T20:27:13;9.18;;;6.25;;
51292;SDS011;37377;45.186;9.778;2023-05-10T20:29:49;22.55;;;8.15;;
51292;SDS011;37377;45.186;9.778;2023-05-10T20:32:30;9.93;;;7.10;;
51292;SDS011;37377;45.186;9.778;2023-05-10T20:35:05;7.85;;;6.63;;
51292;SDS011;37377;45.186;9.778;2023-05-10T20:37:39;8.82;;;7.38;;
51292;SDS011;37377;45.186;9.778;2023-05-10T20:40:37;10.10;;;7.63;;
51292;SDS011;37377;45.186;9.778;2023-05-10T20:43:06;8.10;;;7.30;;
51292;SDS011;37377;45.186;9.778;2023-05-10T20:46:15;8.60;;;7.65;;
51292;SDS011;37377;45.186;9.778;2023-05-10T20:48:50;9.85;;;7.32;;
51292;SDS011;37377;45.186;9.778;2023-05-10T20:52:04;11.57;;;8.00;;
51292;SDS011;37377;45.186;9.778;2023-05-10T20:55:02;8.50;;;7.72;;
51292;SDS011;37377;45.186;9.778;2023-05-10T20:57:49;10.40;;;7.65;;
51292;SDS011;37377;45.186;9.778;2023-05-10T21:00:23;12.95;;;11.85;;
51292;SDS011;37377;45.186;9.778;2023-05-10T21:03:06;9.80;;;8.20;;
51292;SDS011;37377;45.186;9.778;2023-05-10T21:05:34;10.80;;;7.97;;
51292;SDS011;37377;45.186;9.778;2023-05-10T21:08:18;9.40;;;8.60;;
51292;SDS011;37377;45.186;9.778;2023-05-10T21:11:04;12.30;;;8.25;;
51292;SDS011;37377;45.186;9.778;2023-05-10T21:13:57;13.25;;;8.57;;
51292;SDS011;37377;45.186;9.778;2023-05-10T21:16:31;16.55;;;10.48;;
51292;SDS011;37377;45.186;9.778;2023-05-10T21:19:46;12.85;;;8.30;;
51292;SDS011;37377;45.186;9.778;2023-05-10T21:22:34;10.55;;;8.95;;
51292;SDS011;37377;45.186;9.778;2023-05-10T21:25:30;11.20;;;9.13;;
51292;SDS011;37377;45.186;9.778;2023-05-10T21:28:13;12.30;;;8.98;;
51292;SDS011;37377;45.186;9.778;2023-05-10T21:31:10;9.30;;;8.32;;
51292;SDS011;37377;45.186;9.778;2023-05-10T21:33:47;8.68;;;7.82;;
51292;SDS011;37377;45.186;9.778;2023-05-10T21:36:19;9.10;;;8.18;;
51292;SDS011;37377;45.186;9.778;2023-05-10T21:38:58;16.83;;;13.43;;
51292;SDS011;37377;45.186;9.778;2023-05-10T21:42:03;14.23;;;9.95;;
51292;SDS011;37377;45.186;9.778;2023-05-10T21:45:12;12.68;;;10.52;;
51292;SDS011;37377;45.186;9.778;2023-05-10T21:48:47;13.23;;;9.02;;
51292;SDS011;37377;45.186;9.778;2023-05-10T21:51:30;9.77;;;8.95;;